CST,Max TemperatureF,Mean TemperatureF,Min TemperatureF,Max Dew PointF,MeanDew PointF,Min DewpointF,Max Humidity, Mean Humidity, Min Humidity, Max Sea Level PressureIn, Mean Sea Level PressureIn, Min Sea Level PressureIn, Max VisibilityMiles, Mean VisibilityMiles, Min VisibilityMiles, Max Wind SpeedMPH, Mean Wind SpeedMPH, Max Gust SpeedMPH,PrecipitationIn, CloudCover, Events, WindDirDegrees
2013-1-1,43,38,33,43,40,33,100,99,93,30.16,30.08,30.04,10,3,0,16,2,,0.01,8,Fog-Rain,1
2013-1-2,34,32,30,32,28,26,93,85,75,30.27,30.23,30.16,10,8,4,12,6,,0.00,7,,6
2013-1-3,43,34,26,27,24,22,92,75,44,30.44,30.34,30.24,10,9,5,8,1,,0.00,0,,355
2013-1-4,45,32,20,27,23,19,100,78,41,30.51,30.44,30.42,10,10,6,9,1,,0.00,0,,307
2013-1-5,45,34,22,32,27,21,100,70,44,30.43,30.34,30.26,10,10,10,6,1,,0.00,4,,203
2013-1-6,50,38,25,36,31,21,86,71,50,30.41,30.27,30.18,10,10,10,15,6,,0.00,3,,291
2013-1-7,48,35,22,30,25,19,100,78,46,30.45,30.37,30.29,10,9,6,7,0,,0.00,0,,180
2013-1-8,59,42,25,41,34,24,100,79,46,30.38,30.29,30.24,10,10,7,12,2,,0.00,0,,196
2013-1-9,55,50,45,54,51,42,100,98,83,30.43,30.38,30.30,10,4,0,8,0,,0.29,8,Fog-Rain,359
2013-1-10,66,58,52,61,57,53,100,92,77,30.42,30.25,30.03,10,8,2,21,4,28,0.00,7,Rain,159
2013-1-11,70,65,60,63,61,59,100,86,66,30.08,30.02,29.98,10,9,2,17,11,24,0.07,6,Rain,206
2013-1-12,68,66,64,66,64,61,100,92,78,30.06,30.00,29.88,10,7,1,13,5,,0.36,7,Rain,194
2013-1-13,70,53,36,65,54,34,100,91,73,30.23,29.99,29.84,10,7,1,22,10,30,0.80,7,Rain-Thunderstorm,259
2013-1-14,37,34,30,34,30,26,96,90,79,30.38,30.30,30.25,10,9,2,18,11,23,0.00,7,Rain,9
2013-1-15,35,32,30,36,33,28,100,96,92,30.26,30.14,30.03,10,4,1,16,10,20,0.05,8,Rain,12
2013-1-16,36,34,33,36,34,33,100,96,92,30.16,30.11,30.02,10,5,2,10,5,,0.00,8,Rain,350
2013-1-17,45,40,34,34,32,29,97,79,61,30.45,30.19,30.05,10,9,5,25,10,32,0.00,4,Rain,6
2013-1-18,50,38,25,30,27,24,96,75,36,30.59,30.49,30.40,10,10,8,9,3,,0.00,0,,210
2013-1-19,56,40,25,32,29,23,100,65,35,30.40,30.29,30.18,10,10,10,15,4,22,0.00,0,,203
2013-1-20,54,41,28,35,27,20,96,66,29,30.28,30.21,30.19,10,10,10,9,1,,0.00,0,,347
2013-1-21,41,33,25,23,16,10,78,55,32,30.33,30.27,30.19,10,10,10,17,6,22,0.00,1,,346
2013-1-22,31,25,19,10,5,-3,65,42,27,30.47,30.40,30.32,10,10,10,12,6,,0.00,3,,14
2013-1-23,52,36,21,31,21,7,89,57,38,30.40,30.31,30.16,10,10,10,12,1,,0.00,2,,242
2013-1-24,36,32,28,31,14,6,89,51,29,30.50,30.43,30.32,10,10,10,17,7,20,0.00,1,,27
2013-1-25,38,34,30,37,31,11,100,89,45,30.29,30.18,30.04,10,6,1,10,3,,0.35,8,Rain,329
2013-1-26,45,36,26,34,30,27,100,91,54,30.36,30.32,30.27,10,6,1,4,0,,0.00,4,,10
2013-1-27,52,45,38,42,38,33,83,68,54,30.76,30.58,30.28,10,10,10,15,6,21,0.00,5,,179
2013-1-28,59,53,47,52,46,37,86,75,63,30.65,30.25,30.17,10,10,10,17,9,26,0.00,5,,181
2013-1-29,70,61,52,63,58,50,94,85,73,30.53,30.10,29.68,10,9,4,18,9,34,0.00,5,,185
2013-1-30,72,54,36,63,52,25,100,88,63,29.97,29.64,29.53,10,6,0,37,15,46,1.17,6,Fog-Rain-Thunderstorm,237
2013-1-31,46,39,32,36,27,21,93,67,41,30.22,30.12,29.99,10,8,1,23,13,33,0.00,6,Rain,280